Terminal Aerodrome Forecast
Issued by NWS

Home | Current Version | Previous Version | Text Only | Print | Product List | Glossary On
Versions: 1 2 3 4 5 6 7 8 9 10 11 12 13 14 15 16 17 18 19 20 21
388
FTUS46 KLOX 250039 AAA
TAFWJF
TAF AMD
KWJF 250039Z 2501/2524 23017KT P6SM BKN200
     FM250900 27010KT P6SM VCSH BKN050
     FM251400 26014KT P6SM VCSH OVC035
     FM251700 27018G25KT P6SM BKN040
     FM252000 26020G30KT P6SM SCT050=

USA.gov is the U.S. government's official web portal to all federal, state and local government web resources and services.